Terminal Aerodrome Forecast
Issued by NWS Bismarck, ND

Home | Current Version | Previous Version | Graphics & Text | Print | Product List | Glossary On
Versions: 1 2 3 4 5 6 7 8 9 10 11 12 13 14 15 16 17 18 19
000
FTUS43 KBIS 212327
TAFBIS
TAF
KBIS 212327Z 2200/2224 00000KT P6SM BKN180
     FM220200 00000KT 4SM BR BKN130
     FM220500 00000KT 1/2SM FZFG OVC005
     FM221400 00000KT 1SM BR BKN008
     FM221600 VRB03KT 3SM BR BKN010
     FM221800 33004KT P6SM SCT015
     FM221900 VRB03KT P6SM SCT110=

USA.gov is the U.S. government's official web portal to all federal, state and local government web resources and services.